createdAt,value
2023-08-28T00:01:03.288Z,26.69
2023-08-28T00:03:31.679Z,26.68
2023-08-28T00:05:59.751Z,26.71
2023-08-28T00:08:27.329Z,26.58
2023-08-28T00:10:55.603Z,26.57
2023-08-28T00:13:23.360Z,26.66
2023-08-28T00:15:51.101Z,26.62
2023-08-28T00:18:19.334Z,26.60
2023-08-28T00:20:46.931Z,26.66
2023-08-28T00:23:14.820Z,26.61
2023-08-28T00:25:42.709Z,26.61
2023-08-28T00:28:10.321Z,26.62
2023-08-28T00:30:38.010Z,26.68
2023-08-28T00:33:06.526Z,26.53
2023-08-28T00:35:34.738Z,26.44
2023-08-28T00:38:02.325Z,26.46
2023-08-28T00:40:30.364Z,26.64
2023-08-28T00:42:57.903Z,26.64
2023-08-28T00:45:26.243Z,26.61
2023-08-28T00:47:54.150Z,26.68
2023-08-28T00:50:21.780Z,26.65
2023-08-28T00:52:49.346Z,26.65
2023-08-28T00:55:27.203Z,26.66
2023-08-28T00:57:54.809Z,26.69
2023-08-28T01:00:22.931Z,26.72
2023-08-28T01:02:51.273Z,26.67
2023-08-28T01:05:19.997Z,26.62
2023-08-28T01:08:14.942Z,26.67
2023-08-28T01:10:47.361Z,26.62
2023-08-28T01:13:32.878Z,26.65
2023-08-28T01:16:00.920Z,26.65
2023-08-28T01:18:28.844Z,26.62
2023-08-28T01:20:59.117Z,26.59
2023-08-28T01:23:36.277Z,26.47
2023-08-28T01:26:09.942Z,26.41
2023-08-28T01:28:37.943Z,26.45
2023-08-28T01:31:06.167Z,26.15
2023-08-28T01:33:38.048Z,26.21
2023-08-28T01:36:08.748Z,26.21
2023-08-28T01:38:42.617Z,26.02
2023-08-28T01:41:11.427Z,26.29
2023-08-28T01:43:40.172Z,26.15
2023-08-28T01:46:08.536Z,26.27
2023-08-28T01:48:37.148Z,26.37
2023-08-28T01:51:04.995Z,26.24
2023-08-28T01:53:32.616Z,26.17
2023-08-28T01:56:09.622Z,26.13
2023-08-28T01:58:48.484Z,26.02
2023-08-28T02:01:16.938Z,25.90
2023-08-28T02:03:45.435Z,25.83
2023-08-28T02:06:13.806Z,25.91
2023-08-28T02:08:41.423Z,25.82
2023-08-28T02:11:10.054Z,25.87
2023-08-28T02:13:38.500Z,25.77
2023-08-28T02:16:06.290Z,25.68
2023-08-28T02:18:34.205Z,25.91
2023-08-28T02:21:01.760Z,25.91
2023-08-28T02:23:30.594Z,25.78
2023-08-28T02:25:58.203Z,25.84
2023-08-28T02:28:26.672Z,25.99
2023-08-28T02:30:54.651Z,25.68
2023-08-28T02:33:22.341Z,25.81
2023-08-28T02:35:49.959Z,25.67
2023-08-28T02:38:21.242Z,25.64
2023-08-28T02:40:48.849Z,25.36
2023-08-28T02:43:26.195Z,25.46
2023-08-28T02:45:54.214Z,25.31
2023-08-28T02:48:21.965Z,25.36
2023-08-28T02:50:50.330Z,25.61
2023-08-28T02:53:18.869Z,25.51
2023-08-28T02:56:18.339Z,25.61
2023-08-28T02:58:46.485Z,25.51
2023-08-28T03:01:14.067Z,25.30
2023-08-28T03:03:41.653Z,25.35
2023-08-28T03:06:09.973Z,25.47
2023-08-28T03:08:37.947Z,25.39
2023-08-28T03:11:05.464Z,25.20
2023-08-28T03:13:33.329Z,25.11
2023-08-28T03:16:01.018Z,25.30
2023-08-28T03:18:29.130Z,25.44
2023-08-28T03:20:57.298Z,25.18
2023-08-28T03:23:24.792Z,25.22
2023-08-28T03:25:52.489Z,25.19
2023-08-28T03:28:20.418Z,25.33
2023-08-28T03:31:06.651Z,25.13
2023-08-28T03:33:36.779Z,24.99
2023-08-28T03:36:06.969Z,25.18
2023-08-28T03:38:37.346Z,25.13
2023-08-28T03:41:08.766Z,25.17
2023-08-28T03:43:36.858Z,25.06
2023-08-28T03:46:04.750Z,24.98
2023-08-28T03:48:32.318Z,24.99
2023-08-28T03:51:00.179Z,24.88
2023-08-28T03:53:28.457Z,24.81
2023-08-28T03:55:56.591Z,24.74
2023-08-28T03:58:24.366Z,24.73
2023-08-28T04:00:55.392Z,24.59
2023-08-28T04:03:23.532Z,24.11
2023-08-28T04:05:54.060Z,24.43
2023-08-28T04:08:22.482Z,24.37
2023-08-28T04:10:50.442Z,24.45
2023-08-28T04:13:18.394Z,24.57
2023-08-28T04:15:48.056Z,24.55
2023-08-28T04:18:17.502Z,24.56
2023-08-28T04:20:45.442Z,24.60
2023-08-28T04:23:14.493Z,24.59
2023-08-28T04:25:43.458Z,24.48
2023-08-28T04:28:10.989Z,24.42
2023-08-28T04:30:38.919Z,24.34
2023-08-28T04:33:07.181Z,24.67
2023-08-28T04:35:35.167Z,24.24
2023-08-28T04:38:03.154Z,24.29
2023-08-28T04:40:31.248Z,24.37
2023-08-28T04:42:58.861Z,24.42
2023-08-28T04:45:26.383Z,24.40
2023-08-28T04:47:54.466Z,24.47
2023-08-28T04:50:22.036Z,24.34
2023-08-28T04:52:49.651Z,24.63
2023-08-28T04:55:17.604Z,24.54
2023-08-28T04:57:45.164Z,24.56
2023-08-28T05:00:13.556Z,24.67
2023-08-28T05:02:42.192Z,24.76
2023-08-28T05:05:10.628Z,24.68
2023-08-28T05:07:44.654Z,24.54
2023-08-28T05:10:18.219Z,24.31
2023-08-28T05:12:45.939Z,24.69
2023-08-28T05:15:14.309Z,25.01
2023-08-28T05:17:42.295Z,25.11
2023-08-28T05:20:10.915Z,24.91
2023-08-28T05:22:38.839Z,25.11
2023-08-28T05:25:06.717Z,24.91
2023-08-28T05:27:34.417Z,25.42
2023-08-28T05:30:04.244Z,25.61
2023-08-28T05:32:32.480Z,25.60
2023-08-28T05:35:00.628Z,25.72
2023-08-28T05:37:29.664Z,25.97
2023-08-28T05:39:57.380Z,25.83
2023-08-28T05:42:26.022Z,25.71
2023-08-28T05:44:53.887Z,25.93
2023-08-28T05:47:21.455Z,25.97
2023-08-28T05:49:49.120Z,26.06
2023-08-28T05:52:27.369Z,26.08
2023-08-28T05:54:57.676Z,26.68
2023-08-28T05:57:25.984Z,26.68
2023-08-28T05:59:53.849Z,26.69
2023-08-28T06:02:26.592Z,26.87
2023-08-28T06:05:20.210Z,26.78
2023-08-28T06:08:23.283Z,26.77
2023-08-28T06:10:51.880Z,27.02
2023-08-28T06:13:25.967Z,27.17
2023-08-28T06:20:56.613Z,27.68
2023-08-28T06:23:24.650Z,27.72
2023-08-28T06:25:52.356Z,27.39
2023-08-28T06:29:54.651Z,28.02
2023-08-28T06:32:22.776Z,28.02
2023-08-28T06:34:50.431Z,27.52
2023-08-28T06:37:18.049Z,27.52
2023-08-28T06:39:46.268Z,27.59
2023-08-28T06:42:14.310Z,27.92
2023-08-28T06:44:42.667Z,28.24
2023-08-28T06:47:10.676Z,28.50
2023-08-28T06:49:38.252Z,28.61
2023-08-28T06:57:19.716Z,28.14
2023-08-28T07:00:17.858Z,28.68
2023-08-28T07:03:07.958Z,28.69
2023-08-28T07:05:54.956Z,28.43
2023-08-28T07:09:00.877Z,28.11
2023-08-28T07:11:48.584Z,28.14
2023-08-28T07:14:57.233Z,28.66
2023-08-28T07:17:37.303Z,28.68
2023-08-28T07:20:29.136Z,29.17
2023-08-28T07:23:06.535Z,28.67
2023-08-28T07:26:22.066Z,28.45
2023-08-28T07:29:02.308Z,28.50
2023-08-28T07:31:48.012Z,28.77
2023-08-28T07:34:38.942Z,29.14
2023-08-28T07:37:22.211Z,29.06
2023-08-28T07:40:14.250Z,28.70
2023-08-28T07:43:16.698Z,28.77
2023-08-28T07:45:45.006Z,29.07
2023-08-28T07:48:33.990Z,28.90
2023-08-28T07:51:02.043Z,28.49
2023-08-28T07:53:45.228Z,28.60
2023-08-28T07:56:22.483Z,29.25
2023-08-28T07:58:50.486Z,29.32
2023-08-28T08:01:24.381Z,28.75
2023-08-28T08:04:27.922Z,28.70
2023-08-28T08:07:09.340Z,29.59
2023-08-28T08:09:51.470Z,29.64
2023-08-28T08:12:19.611Z,29.75
2023-08-28T08:14:49.620Z,29.39
2023-08-28T08:17:19.961Z,29.17
2023-08-28T08:19:54.749Z,29.15
2023-08-28T08:22:23.039Z,29.38
2023-08-28T08:24:51.160Z,29.21
2023-08-28T08:27:19.774Z,29.33
2023-08-28T08:30:10.948Z,29.33
2023-08-28T08:32:53.284Z,30.01
2023-08-28T08:35:22.527Z,29.91
2023-08-28T08:37:54.325Z,30.18
2023-08-28T08:40:26.192Z,29.99
2023-08-28T08:42:57.779Z,30.16
2023-08-28T08:45:29.884Z,30.40
2023-08-28T08:48:01.980Z,30.51
2023-08-28T08:50:36.674Z,30.42
2023-08-28T08:53:13.240Z,30.34
2023-08-28T08:55:47.673Z,30.52
2023-08-28T08:58:17.034Z,30.64
2023-08-28T09:00:45.454Z,30.70
2023-08-28T09:03:15.933Z,31.18
2023-08-28T09:07:19.424Z,30.94
2023-08-28T09:10:00.246Z,31.34
2023-08-28T09:12:52.564Z,31.07
2023-08-28T09:15:40.595Z,31.41
2023-08-28T09:18:39.155Z,31.55
2023-08-28T09:21:18.417Z,31.59
2023-08-28T09:24:11.180Z,32.19
2023-08-28T09:26:54.308Z,32.16
2023-08-28T09:29:45.405Z,32.05
2023-08-28T09:32:29.852Z,32.23
2023-08-28T09:35:22.175Z,32.05
2023-08-28T09:38:00.069Z,32.36
2023-08-28T09:40:48.030Z,32.54
2023-08-28T09:43:42.975Z,32.72
2023-08-28T09:46:57.014Z,32.81
2023-08-28T09:49:26.393Z,32.74
2023-08-28T09:52:25.963Z,33.10
2023-08-28T09:55:06.752Z,33.00
2023-08-28T09:58:09.301Z,33.31
2023-08-28T10:00:41.547Z,33.31
2023-08-28T10:03:13.265Z,33.46
2023-08-28T10:05:45.811Z,33.72
2023-08-28T10:08:18.421Z,33.82
2023-08-28T10:11:02.458Z,33.36
2023-08-28T10:14:08.106Z,33.52
2023-08-28T10:17:06.202Z,33.43
2023-08-28T10:19:59.829Z,33.62
2023-08-28T10:22:39.844Z,33.68
2023-08-28T10:25:32.211Z,34.11
2023-08-28T10:28:12.750Z,34.13
2023-08-28T10:30:58.778Z,34.31
2023-08-28T10:33:38.987Z,34.85
2023-08-28T10:36:40.929Z,34.48
2023-08-28T10:39:01.957Z,35.02
2023-08-28T10:41:52.136Z,35.17
2023-08-28T10:44:24.899Z,35.68
2023-08-28T10:46:53.278Z,35.62
2023-08-28T10:49:21.853Z,35.33
2023-08-28T10:52:14.020Z,35.71
2023-08-28T10:54:44.537Z,35.89
2023-08-28T10:57:33.582Z,36.00
2023-08-28T11:00:19.540Z,35.19
2023-08-28T11:03:19.683Z,35.70
2023-08-28T11:06:39.636Z,35.93
2023-08-28T11:09:40.467Z,35.94
2023-08-28T11:12:45.373Z,35.99
2023-08-28T11:15:42.659Z,36.22
2023-08-28T11:18:29.861Z,36.10
2023-08-28T11:21:24.983Z,36.19
2023-08-28T11:23:55.400Z,35.95
2023-08-28T11:26:47.027Z,35.94
2023-08-28T11:29:28.984Z,35.81
2023-08-28T11:32:22.424Z,36.22
2023-08-28T11:35:06.863Z,36.24
2023-08-28T11:37:40.795Z,36.54
2023-08-28T11:40:22.012Z,37.06
2023-08-28T11:43:16.522Z,36.95
2023-08-28T11:45:44.599Z,37.16
2023-08-28T11:48:38.543Z,36.95
2023-08-28T11:51:08.653Z,36.71
2023-08-28T11:53:56.730Z,36.51
2023-08-28T11:56:24.997Z,36.58
2023-08-28T11:59:15.596Z,36.85
2023-08-28T12:01:48.207Z,37.20
2023-08-28T12:04:43.555Z,37.15
2023-08-28T12:07:28.974Z,37.04
2023-08-28T12:10:22.714Z,37.54
2023-08-28T12:13:02.415Z,37.50
2023-08-28T12:15:50.996Z,37.44
2023-08-28T12:18:42.337Z,37.58
2023-08-28T12:21:42.589Z,37.76
2023-08-28T12:24:28.126Z,37.60
2023-08-28T12:27:28.500Z,37.88
2023-08-28T12:30:19.841Z,37.96
2023-08-28T12:33:11.087Z,37.76
2023-08-28T12:36:05.388Z,37.82
2023-08-28T12:38:50.107Z,37.69
2023-08-28T12:41:36.302Z,38.34
2023-08-28T12:44:15.356Z,38.03
2023-08-28T12:46:57.185Z,38.31
2023-08-28T12:49:33.371Z,38.22
2023-08-28T12:52:02.908Z,37.95
2023-08-28T12:54:31.277Z,38.17
2023-08-28T12:56:59.079Z,38.29
2023-08-28T12:59:28.470Z,38.51
2023-08-28T13:02:01.993Z,38.40
2023-08-28T13:04:34.865Z,38.25
2023-08-28T13:07:06.405Z,38.43
2023-08-28T13:09:35.074Z,38.31
2023-08-28T13:12:11.242Z,38.11
2023-08-28T13:14:39.853Z,38.40
2023-08-28T13:17:08.699Z,38.69
2023-08-28T13:20:03.141Z,38.60
2023-08-28T13:22:31.304Z,38.92
2023-08-28T13:24:59.601Z,38.95
2023-08-28T13:27:27.810Z,39.19
2023-08-28T13:30:00.935Z,39.22
2023-08-28T13:32:29.422Z,39.32
2023-08-28T13:35:17.973Z,39.54
2023-08-28T13:37:46.624Z,39.16
2023-08-28T13:40:26.962Z,39.22
2023-08-28T13:42:55.601Z,38.48
2023-08-28T13:45:32.377Z,38.52
2023-08-28T13:48:01.009Z,38.35
2023-08-28T13:50:34.170Z,38.55
2023-08-28T13:53:02.622Z,38.77
2023-08-28T13:55:31.543Z,38.60
2023-08-28T13:58:08.191Z,38.61
2023-08-28T14:00:36.638Z,38.52
2023-08-28T14:03:08.196Z,38.62
2023-08-28T14:05:36.513Z,38.32
2023-08-28T14:08:04.669Z,38.70
2023-08-28T14:10:39.034Z,38.60
2023-08-28T14:13:26.376Z,38.33
2023-08-28T14:16:00.016Z,37.91
2023-08-28T14:18:28.195Z,38.01
2023-08-28T14:20:57.148Z,37.94
2023-08-28T14:23:48.465Z,37.76
2023-08-28T14:26:16.872Z,37.98
2023-08-28T14:28:46.069Z,38.03
2023-08-28T14:31:13.963Z,37.98
2023-08-28T14:33:42.053Z,37.90
2023-08-28T14:36:12.385Z,37.59
2023-08-28T14:38:40.039Z,37.87
2023-08-28T14:41:10.140Z,38.00
2023-08-28T14:44:07.053Z,37.97
2023-08-28T14:46:46.534Z,38.01
2023-08-28T14:49:38.041Z,37.64
2023-08-28T14:52:17.421Z,37.80
2023-08-28T14:55:09.293Z,38.18
2023-08-28T14:57:50.245Z,38.15
2023-08-28T15:00:43.116Z,38.04
2023-08-28T15:03:37.216Z,38.08
2023-08-28T15:06:05.908Z,37.97
2023-08-28T15:08:34.538Z,38.02
2023-08-28T15:11:02.510Z,38.17
2023-08-28T15:13:54.186Z,38.19
2023-08-28T15:16:33.312Z,38.20
2023-08-28T15:19:26.698Z,37.81
2023-08-28T15:22:06.235Z,37.98
2023-08-28T15:24:57.146Z,37.80
2023-08-28T15:27:36.516Z,37.90
2023-08-28T15:30:31.315Z,37.72
2023-08-28T15:33:08.114Z,37.84
2023-08-28T15:35:55.763Z,37.92
2023-08-28T15:38:35.069Z,37.80
2023-08-28T15:41:40.749Z,37.76
2023-08-28T15:44:12.299Z,37.87
2023-08-28T15:46:40.702Z,37.83
2023-08-28T15:49:20.408Z,37.91
2023-08-28T15:52:23.109Z,37.94
2023-08-28T15:54:55.296Z,37.87
2023-08-28T15:57:50.158Z,37.81
2023-08-28T16:00:18.369Z,37.68
2023-08-28T16:02:47.588Z,37.65
2023-08-28T16:05:15.736Z,37.39
2023-08-28T16:07:53.244Z,37.32
2023-08-28T16:10:20.820Z,37.25
2023-08-28T16:12:48.476Z,37.24
2023-08-28T16:15:18.823Z,37.04
2023-08-28T16:17:46.928Z,36.91
2023-08-28T16:20:14.467Z,36.78
2023-08-28T16:22:43.092Z,36.92
2023-08-28T16:25:20.301Z,36.98
2023-08-28T16:27:48.486Z,36.64
2023-08-28T16:30:16.380Z,36.63
2023-08-28T16:32:43.965Z,36.50
2023-08-28T16:35:32.582Z,36.49
2023-08-28T16:38:00.809Z,36.12
2023-08-28T16:40:33.252Z,36.00
2023-08-28T16:43:01.278Z,35.80
2023-08-28T16:45:41.947Z,35.73
2023-08-28T16:48:10.160Z,35.57
2023-08-28T16:50:39.771Z,35.39
2023-08-28T16:53:34.729Z,35.29
2023-08-28T16:56:03.393Z,35.01
2023-08-28T16:58:50.906Z,34.93
2023-08-28T17:01:26.344Z,34.76
2023-08-28T17:04:34.290Z,34.58
2023-08-28T17:07:12.415Z,34.52
2023-08-28T17:09:48.921Z,34.42
2023-08-28T17:12:16.521Z,34.24
2023-08-28T17:14:48.505Z,34.14
2023-08-28T17:17:36.107Z,33.95
2023-08-28T17:20:08.441Z,33.89
2023-08-28T17:22:37.264Z,33.79
2023-08-28T17:25:20.371Z,33.80
2023-08-28T17:28:02.163Z,33.72
2023-08-28T17:30:46.128Z,33.59
2023-08-28T17:33:15.037Z,33.48
2023-08-28T17:36:21.451Z,33.42
2023-08-28T17:38:55.231Z,33.25
2023-08-28T17:41:54.814Z,33.27
2023-08-28T17:44:42.394Z,33.07
2023-08-28T17:47:27.261Z,32.87
2023-08-28T17:50:20.259Z,32.70
2023-08-28T17:52:59.495Z,32.57
2023-08-28T17:55:50.047Z,32.36
2023-08-28T17:58:18.602Z,32.31
2023-08-28T18:00:48.218Z,32.19
2023-08-28T18:03:32.725Z,32.21
2023-08-28T18:06:04.973Z,32.01
2023-08-28T18:08:54.361Z,31.94
2023-08-28T18:11:33.858Z,31.95
2023-08-28T18:14:20.634Z,31.83
2023-08-28T18:17:13.728Z,31.67
2023-08-28T18:19:56.204Z,31.65
2023-08-28T18:22:47.162Z,31.50
2023-08-28T18:25:26.438Z,31.24
2023-08-28T18:28:18.154Z,31.25
2023-08-28T18:30:57.433Z,31.21
2023-08-28T18:33:49.129Z,31.02
2023-08-28T18:36:29.739Z,30.97
2023-08-28T18:39:22.076Z,30.89
2023-08-28T18:42:08.904Z,30.84
2023-08-28T18:44:52.210Z,30.71
2023-08-28T18:47:31.410Z,30.49
2023-08-28T18:50:23.881Z,30.41
2023-08-28T18:53:04.242Z,30.44
2023-08-28T18:55:56.529Z,30.42
2023-08-28T18:58:36.349Z,30.48
2023-08-28T19:01:18.426Z,30.46
2023-08-28T19:04:01.091Z,30.75
2023-08-28T19:06:51.933Z,31.04
2023-08-28T19:09:53.509Z,31.09
2023-08-28T19:12:23.235Z,31.37
2023-08-28T19:14:53.846Z,31.47
2023-08-28T19:17:25.710Z,31.54
2023-08-28T19:19:56.970Z,31.60
2023-08-28T19:27:24.219Z,32.26
2023-08-28T19:29:52.773Z,32.26
2023-08-28T19:35:27.230Z,32.94
2023-08-28T19:37:55.771Z,32.94
2023-08-28T19:40:23.632Z,32.32
2023-08-28T19:42:51.814Z,32.29
2023-08-28T19:45:24.413Z,32.27
2023-08-28T19:49:12.485Z,32.37
2023-08-28T19:51:40.713Z,32.37
2023-08-28T19:54:10.675Z,31.85
2023-08-28T19:56:39.087Z,32.07
2023-08-28T20:01:33.546Z,31.70
2023-08-28T20:04:19.153Z,31.74
2023-08-28T20:06:50.472Z,31.87
2023-08-28T20:11:45.477Z,31.97
2023-08-28T20:14:13.556Z,31.91
2023-08-28T20:16:41.979Z,32.06
2023-08-28T20:19:10.970Z,32.16
2023-08-28T20:22:00.384Z,32.35
2023-08-28T20:26:57.226Z,32.37
2023-08-28T20:32:29.670Z,32.32
2023-08-28T20:35:29.424Z,32.57
2023-08-28T20:37:57.399Z,32.85
2023-08-28T20:40:39.814Z,32.48
2023-08-28T20:43:27.636Z,32.39
2023-08-28T20:45:58.831Z,32.56
2023-08-28T20:48:44.570Z,32.06
2023-08-28T20:51:20.451Z,31.70
2023-08-28T20:54:03.535Z,32.14
2023-08-28T20:57:04.423Z,31.83
2023-08-28T20:59:51.900Z,31.48
2023-08-28T21:02:25.668Z,30.40
2023-08-28T21:04:55.250Z,30.20
2023-08-28T21:07:24.288Z,29.70
2023-08-28T21:09:58.365Z,29.66
2023-08-28T21:12:45.847Z,29.28
2023-08-28T21:15:35.278Z,29.29
2023-08-28T21:18:19.411Z,28.05
2023-08-28T21:21:27.203Z,28.25
2023-08-28T21:24:17.296Z,28.32
2023-08-28T21:27:25.187Z,28.02
2023-08-28T21:30:08.329Z,28.20
2023-08-28T21:32:57.240Z,28.19
2023-08-28T21:35:39.481Z,27.98
2023-08-28T21:38:31.057Z,28.07
2023-08-28T21:41:15.413Z,28.15
2023-08-28T21:44:12.857Z,28.00
2023-08-28T21:46:45.299Z,27.86
2023-08-28T21:49:43.392Z,27.99
2023-08-28T21:57:04.734Z,27.85
2023-08-28T21:59:52.065Z,27.52
2023-08-28T22:07:19.396Z,27.88
2023-08-28T22:10:08.323Z,27.66
2023-08-28T22:17:07.279Z,27.51
2023-08-28T22:19:58.281Z,27.38
2023-08-28T22:22:27.515Z,27.48
2023-08-28T22:25:24.132Z,27.19
2023-08-28T22:28:01.828Z,27.40
2023-08-28T22:30:33.004Z,27.03
2023-08-28T22:33:01.542Z,25.91
2023-08-28T22:35:30.459Z,26.42
2023-08-28T22:38:20.603Z,26.29
2023-08-28T22:40:48.121Z,26.15
2023-08-28T22:43:16.136Z,26.04
2023-08-28T22:45:45.350Z,26.08
2023-08-28T22:48:55.690Z,26.04
2023-08-28T22:51:25.779Z,25.78
2023-08-28T22:54:17.614Z,25.93
2023-08-28T22:56:57.598Z,25.87
2023-08-28T22:59:37.305Z,25.90
2023-08-28T23:02:05.324Z,26.16
2023-08-28T23:04:33.298Z,26.63
2023-08-28T23:07:00.783Z,26.39
2023-08-28T23:09:28.322Z,25.75
2023-08-28T23:11:56.159Z,25.71
2023-08-28T23:14:23.666Z,25.66
2023-08-28T23:16:51.224Z,25.74
2023-08-28T23:19:19.975Z,25.60
2023-08-28T23:21:47.776Z,25.62
2023-08-28T23:24:15.336Z,25.68
2023-08-28T23:26:43.167Z,25.74
2023-08-28T23:29:10.732Z,25.64
2023-08-28T23:31:38.269Z,25.73
2023-08-28T23:34:07.089Z,25.89
2023-08-28T23:36:37.443Z,25.82
2023-08-28T23:39:08.858Z,25.74
2023-08-28T23:41:36.709Z,25.90
2023-08-28T23:44:04.412Z,25.97
2023-08-28T23:46:31.922Z,25.92
2023-08-28T23:49:01.023Z,25.75
2023-08-28T23:51:33.261Z,25.78
2023-08-28T23:54:24.322Z,25.77
2023-08-28T23:57:03.709Z,25.81
2023-08-28T23:59:31.675Z,25.86
